Time;durP1;ratioP1;P1;durP2;ratioP2;P2;SDS_P1;SDS_P2;PMS_P1;PMS_P2;Temp;Humidity;BMP_temperature;BMP_pressure;BME280_temperature;BME280_humidity;BME280_pressure;Samples;Min_cycle;Max_cycle;Signal;HPM_P1;HPM_P2
2021/09/15 00:01:12;;;;;;;19.90;13.00;;;;;;;17.47;66.13;100327.81;4915012;28;100915;-83
2021/09/15 00:03:37;;;;;;;15.38;13.45;;;;;;;17.46;66.33;100326.97;4931621;28;96681;-80
2021/09/15 00:06:04;;;;;;;18.35;14.07;;;;;;;17.39;66.78;100325.63;4915106;28;97001;-83
2021/09/15 00:08:30;;;;;;;13.90;12.50;;;;;;;17.37;66.88;100323.09;4914786;28;100260;-83
2021/09/15 00:10:56;;;;;;;18.70;13.50;;;;;;;17.23;67.24;100309.84;4914690;28;101295;-83
2021/09/15 00:13:21;;;;;;;15.52;13.18;;;;;;;17.14;67.64;100311.25;4915146;28;96558;-82
2021/09/15 00:15:47;;;;;;;15.40;13.40;;;;;;;17.27;67.10;100319.28;4915226;28;96535;-83
2021/09/15 00:18:12;;;;;;;17.42;13.70;;;;;;;17.28;66.87;100313.06;4914705;28;101493;-83
2021/09/15 00:20:38;;;;;;;15.20;13.68;;;;;;;17.27;67.03;100314.00;4914984;28;97973;-82
2021/09/15 00:23:03;;;;;;;15.52;13.88;;;;;;;17.20;66.95;100312.69;4914640;28;96662;-82
2021/09/15 00:25:29;;;;;;;16.52;14.27;;;;;;;17.04;67.89;100311.91;4915073;28;96978;-83
2021/09/15 00:27:54;;;;;;;17.77;14.95;;;;;;;17.05;67.43;100313.63;4914820;28;101152;-81
2021/09/15 00:30:20;;;;;;;17.10;13.85;;;;;;;17.05;67.56;100311.81;4914646;28;101442;-83
2021/09/15 00:32:45;;;;;;;16.73;13.65;;;;;;;16.88;68.25;100315.50;4914812;28;96702;-82
2021/09/15 00:35:11;;;;;;;17.10;14.60;;;;;;;16.85;67.97;100301.56;4915212;28;96811;-83
2021/09/15 00:37:38;;;;;;;16.52;14.63;;;;;;;16.95;67.65;100311.50;4914553;28;101138;-83
2021/09/15 00:40:06;;;;;;;16.42;13.45;;;;;;;16.84;67.97;100313.97;4898784;28;101570;-83
2021/09/15 00:42:31;;;;;;;19.23;14.60;;;;;;;16.85;68.04;100310.38;4914774;28;96592;-83
2021/09/15 00:44:57;;;;;;;16.13;13.27;;;;;;;16.70;68.49;100312.13;4898665;28;96956;-82
2021/09/15 00:47:23;;;;;;;15.35;13.65;;;;;;;16.72;68.44;100306.72;4898140;28;101579;-83
2021/09/15 00:49:48;;;;;;;18.15;14.65;;;;;;;16.63;68.87;100307.25;4914261;28;101068;-82
2021/09/15 00:52:14;;;;;;;16.00;14.40;;;;;;;16.59;68.87;100314.53;4914905;28;96606;-81
2021/09/15 00:54:41;;;;;;;15.60;13.48;;;;;;;16.51;69.30;100312.34;4914928;28;96785;-79
2021/09/15 00:57:06;;;;;;;16.40;14.45;;;;;;;16.53;69.16;100312.25;4914201;28;101434;-82
2021/09/15 00:59:32;;;;;;;16.08;14.48;;;;;;;16.38;69.70;100316.66;4929963;28;100955;-82
2021/09/15 01:01:58;;;;;;;16.70;13.57;;;;;;;16.49;68.86;100314.25;4898337;28;96623;-83
2021/09/15 01:04:28;;;;;;;17.35;15.55;;;;;;;16.42;69.30;100310.22;4914936;28;96884;-83
2021/09/15 01:06:54;;;;;;;16.33;14.65;;;;;;;16.33;69.76;100308.13;4899166;28;101407;-82
2021/09/15 01:09:22;;;;;;;17.10;14.70;;;;;;;16.30;69.54;100321.53;4917821;28;97903;-82
2021/09/15 01:11:51;;;;;;;17.95;14.40;;;;;;;16.42;69.73;100322.63;4901570;28;96705;-83
2021/09/15 01:14:40;;;;;;;17.00;14.57;;;;;;;16.35;69.39;100326.56;4890966;28;96884;-82
2021/09/15 01:17:24;;;;;;;16.17;14.05;;;;;;;16.29;69.78;100320.69;4928828;28;97129;-82
2021/09/15 01:20:20;;;;;;;16.42;14.27;;;;;;;16.28;69.80;100329.56;4893738;28;101243;-82
2021/09/15 01:23:08;;;;;;;15.98;14.30;;;;;;;16.28;69.78;100323.41;4917588;28;96635;-82
2021/09/15 01:25:54;;;;;;;15.25;13.73;;;;;;;16.16;69.91;100310.88;4917712;28;97017;-82
2021/09/15 01:28:41;;;;;;;18.83;14.80;;;;;;;16.29;69.96;100326.00;4917282;28;100893;-80
2021/09/15 01:31:11;;;;;;;17.30;13.90;;;;;;;16.34;69.41;100324.88;4917533;28;101291;-83
2021/09/15 01:33:36;;;;;;;16.15;14.05;;;;;;;16.42;69.09;100309.38;4901484;28;96520;-82
2021/09/15 01:36:02;;;;;;;18.27;14.13;;;;;;;16.47;69.27;100328.53;4917339;28;97020;-82
2021/09/15 01:38:27;;;;;;;16.00;14.40;;;;;;;16.44;69.17;100331.34;4916462;28;101335;-83
2021/09/15 01:40:56;;;;;;;15.82;14.23;;;;;;;16.49;68.79;100326.59;4916943;28;101640;-82
2021/09/15 01:43:23;;;;;;;15.30;13.70;;;;;;;16.37;69.39;100327.34;4917300;28;96622;-82
2021/09/15 01:45:48;;;;;;;20.35;13.45;;;;;;;16.37;68.96;100322.03;4917143;28;96574;-82
2021/09/15 01:48:19;;;;;;;16.90;14.00;;;;;;;16.27;69.59;100333.16;4916951;28;101399;-82
2021/09/15 01:50:45;;;;;;;15.27;13.63;;;;;;;16.29;69.23;100328.66;4885074;28;100681;-79
2021/09/15 01:53:11;;;;;;;15.52;13.75;;;;;;;16.45;68.57;100325.09;4917239;28;96625;-83
2021/09/15 01:55:37;;;;;;;15.98;14.02;;;;;;;16.45;68.97;100327.75;4917557;28;96837;-82
2021/09/15 01:58:28;;;;;;;;;;;;;;;16.37;69.06;100324.69;4896419;28;97543;-83
2021/09/15 02:01:14;;;;;;;16.92;14.63;;;;;;;16.24;68.93;100328.03;4900396;28;97592;-83
2021/09/15 02:03:59;;;;;;;19.92;14.88;;;;;;;16.17;69.27;100329.31;4916604;28;96691;-83
2021/09/15 02:06:45;;;;;;;18.27;14.35;;;;;;;16.12;69.52;100336.69;4917029;28;96902;-80
2021/09/15 02:09:29;;;;;;;16.92;15.25;;;;;;;16.11;69.37;100331.47;4916713;28;100756;-83
2021/09/15 02:12:08;;;;;;;15.13;13.68;;;;;;;16.06;69.39;100326.47;4916539;28;99746;-82
2021/09/15 02:14:35;;;;;;;17.98;14.57;;;;;;;16.08;69.59;100319.25;4916994;28;96487;-83
2021/09/15 02:17:00;;;;;;;18.20;15.07;;;;;;;16.02;69.64;100315.16;4900865;28;96968;-82
2021/09/15 02:19:27;;;;;;;16.63;14.88;;;;;;;16.04;69.36;100320.38;4915606;28;102108;-82
2021/09/15 02:22:13;;;;;;;16.63;15.02;;;;;;;15.91;69.84;100301.72;4916495;28;99252;-83
2021/09/15 02:24:38;;;;;;;15.88;14.48;;;;;;;16.04;69.41;100321.22;4917041;28;96614;-82
2021/09/15 02:27:34;;;;;;;15.27;13.77;;;;;;;16.02;69.29;100320.47;4916725;28;96828;-82
2021/09/15 02:30:01;;;;;;;22.27;15.35;;;;;;;16.00;69.70;100326.81;4931832;28;100651;-82
2021/09/15 02:32:40;;;;;;;19.83;15.70;;;;;;;16.05;69.56;100322.94;4902432;28;101012;-82
2021/09/15 02:35:26;;;;;;;18.55;15.82;;;;;;;15.93;69.77;100320.97;4916582;28;96654;-82
2021/09/15 02:38:10;;;;;;;17.98;15.30;;;;;;;15.86;69.89;100317.00;4914238;28;96592;-81
2021/09/15 02:40:53;;;;;;;16.48;14.88;;;;;;;15.93;70.13;100320.13;4918298;28;102475;-81
2021/09/15 02:43:40;;;;;;;18.85;16.13;;;;;;;15.89;69.77;100310.66;4916646;28;98324;-81
2021/09/15 02:46:36;;;;;;;19.20;15.65;;;;;;;15.83;70.02;100298.63;4928615;28;96643;-82
2021/09/15 02:49:20;;;;;;;17.13;15.45;;;;;;;15.86;69.80;100308.19;4916796;28;96834;-82
2021/09/15 02:51:59;;;;;;;20.33;15.85;;;;;;;15.76;70.17;100303.41;4915942;28;101582;-81
2021/09/15 02:54:33;;;;;;;18.73;16.23;;;;;;;15.80;70.08;100309.41;4931238;28;101341;-82
2021/09/15 02:57:21;;;;;;;18.67;15.65;;;;;;;15.89;70.02;100300.94;4915768;28;96934;-81
2021/09/15 02:59:48;;;;;;;21.27;18.60;;;;;;;15.74;70.40;100299.16;4899968;28;96960;-80
2021/09/15 03:02:32;;;;;;;22.90;18.55;;;;;;;15.58;71.21;100309.69;4913424;28;97327;-81
2021/09/15 03:05:18;;;;;;;19.95;17.85;;;;;;;15.75;70.76;100301.69;4908749;28;97670;-82
2021/09/15 03:08:03;;;;;;;21.50;19.27;;;;;;;15.63;71.11;100297.91;4915906;28;96665;-82
2021/09/15 03:10:29;;;;;;;22.73;18.10;;;;;;;15.55;71.08;100272.81;4916322;28;97035;-82
2021/09/15 03:12:55;;;;;;;21.27;19.20;;;;;;;15.80;70.14;100269.69;4931636;28;101008;-81
2021/09/15 03:15:22;;;;;;;22.35;19.75;;;;;;;15.59;71.04;100290.22;4900109;28;101402;-82
2021/09/15 03:17:47;;;;;;;23.33;20.60;;;;;;;15.60;70.87;100286.66;4916142;28;96681;-79
2021/09/15 03:20:14;;;;;;;24.05;21.50;;;;;;;15.63;70.83;100281.19;4900158;28;96768;-81
2021/09/15 03:22:40;;;;;;;24.35;19.85;;;;;;;15.47;70.87;100275.88;4930965;28;101047;-82
2021/09/15 03:25:08;;;;;;;22.92;20.52;;;;;;;15.48;71.19;100279.41;4915440;28;101172;-82
2021/09/15 03:27:34;;;;;;;21.38;19.17;;;;;;;15.41;71.51;100286.78;4915575;28;96698;-82
2021/09/15 03:29:59;;;;;;;23.48;20.88;;;;;;;15.39;71.45;100270.16;4915449;28;96834;-82
2021/09/15 03:32:25;;;;;;;23.83;20.38;;;;;;;15.50;71.38;100274.84;4915352;28;101612;-81
2021/09/15 03:34:51;;;;;;;22.92;20.63;;;;;;;15.41;71.47;100276.22;4915258;28;101135;-81
2021/09/15 03:37:16;;;;;;;22.60;20.27;;;;;;;15.30;71.65;100265.34;4915558;28;96539;-81
2021/09/15 03:39:42;;;;;;;25.25;22.52;;;;;;;15.36;71.76;100265.06;4915926;28;96953;-82
2021/09/15 03:42:08;;;;;;;24.05;21.55;;;;;;;15.32;71.63;100264.34;4899126;28;99983;-82
2021/09/15 03:44:34;;;;;;;24.95;20.88;;;;;;;15.44;71.44;100265.47;4915164;28;99989;-82
2021/09/15 03:47:01;;;;;;;24.25;21.23;;;;;;;15.32;71.65;100261.69;4883215;28;96645;-81
2021/09/15 03:49:27;;;;;;;25.75;23.17;;;;;;;15.50;71.12;100270.41;4899559;28;96968;-81
2021/09/15 03:51:55;;;;;;;28.75;22.25;;;;;;;15.31;71.82;100273.22;4899307;28;102549;-81
2021/09/15 03:54:21;;;;;;;25.67;21.70;;;;;;;15.34;71.64;100281.00;4915045;28;101458;-81
2021/09/15 03:56:46;;;;;;;28.15;23.55;;;;;;;15.37;71.34;100274.69;4915254;28;96516;-79
2021/09/15 03:59:12;;;;;;;35.42;23.98;;;;;;;15.23;71.90;100280.72;4914921;28;96861;-82
2021/09/15 04:01:38;;;;;;;26.25;22.27;;;;;;;15.22;71.83;100281.66;4899039;28;101100;-82
2021/09/15 04:04:04;;;;;;;25.60;22.73;;;;;;;15.22;71.95;100278.16;4915021;28;100954;-81
2021/09/15 04:06:29;;;;;;;25.90;22.77;;;;;;;15.17;71.92;100284.53;4915106;28;96780;-81
2021/09/15 04:08:55;;;;;;;26.95;23.27;;;;;;;15.30;71.38;100282.09;4899060;28;96837;-81
2021/09/15 04:11:22;;;;;;;27.27;22.92;;;;;;;15.01;72.07;100275.75;4914367;28;101392;-81
2021/09/15 04:13:48;;;;;;;25.08;21.52;;;;;;;15.05;71.79;100287.84;4914564;28;99546;-79
2021/09/15 04:16:14;;;;;;;24.80;22.50;;;;;;;15.06;71.98;100278.97;4915103;28;96543;-81
2021/09/15 04:18:40;;;;;;;25.25;22.65;;;;;;;15.12;72.09;100285.72;4899060;28;96853;-81
2021/09/15 04:21:06;;;;;;;26.42;21.55;;;;;;;15.17;71.59;100281.91;4898454;28;101519;-80
2021/09/15 04:31:27;;;;;;;26.67;22.33;;;;;;;15.03;72.06;100281.78;4928279;28;101457;-81
2021/09/15 04:33:55;;;;;;;25.63;22.83;;;;;;;14.97;72.18;100278.63;4914274;28;101785;-81
2021/09/15 04:36:24;;;;;;;24.48;21.55;;;;;;;15.08;71.86;100281.53;4914204;28;96571;-81
2021/09/15 04:38:50;;;;;;;26.30;21.42;;;;;;;15.00;72.26;100278.44;4916074;28;96926;-79
2021/09/15 04:41:17;;;;;;;25.27;21.85;;;;;;;15.00;72.43;100278.44;4930523;28;101583;-81
2021/09/15 04:43:43;;;;;;;26.85;22.80;;;;;;;15.06;72.08;100278.13;4901714;28;101286;-81
2021/09/15 04:46:11;;;;;;;26.13;22.23;;;;;;;15.04;71.98;100275.56;4902250;28;96589;-82
2021/09/15 04:48:38;;;;;;;26.67;21.20;;;;;;;15.13;71.77;100275.06;4901939;28;96853;-82
2021/09/15 04:51:05;;;;;;;27.35;22.50;;;;;;;15.02;72.20;100271.31;4901675;28;101381;-81
2021/09/15 04:53:30;;;;;;;26.60;23.33;;;;;;;15.17;71.51;100273.97;4934311;28;101671;-75
2021/09/15 04:55:56;;;;;;;27.35;24.27;;;;;;;14.98;72.29;100280.31;4933900;28;96661;-74
2021/09/15 04:58:22;;;;;;;24.80;21.38;;;;;;;15.00;72.55;100283.72;4900904;28;96893;-78
2021/09/15 05:00:48;;;;;;;25.73;23.20;;;;;;;15.06;72.00;100280.75;4917005;28;101827;-80
2021/09/15 05:03:14;;;;;;;27.90;23.20;;;;;;;15.09;71.91;100270.88;4917407;28;101248;-78
2021/09/15 05:05:42;;;;;;;27.08;23.40;;;;;;;15.05;72.15;100276.41;4917661;28;96572;-78
2021/09/15 05:08:13;;;;;;;33.65;25.15;;;;;;;15.18;71.63;100261.59;4933841;28;96752;-79
2021/09/15 05:10:39;;;;;;;27.98;24.90;;;;;;;15.66;70.46;100269.59;4901193;28;101492;-77
2021/09/15 05:13:05;;;;;;;27.77;24.83;;;;;;;15.65;69.80;100260.78;4901173;28;101012;-75
2021/09/15 05:15:31;;;;;;;31.70;24.23;;;;;;;15.86;69.64;100268.50;4917390;28;96609;-74
2021/09/15 05:18:00;;;;;;;29.20;23.20;;;;;;;16.15;68.63;100256.22;4917865;28;96950;-75
2021/09/15 05:20:29;;;;;;;27.23;22.92;;;;;;;16.44;67.87;100252.72;4917306;28;101490;-74
2021/09/15 05:22:55;;;;;;;29.65;22.73;;;;;;;16.60;67.16;100243.84;4933221;28;101413;-75
2021/09/15 05:25:23;;;;;;;25.75;23.02;;;;;;;16.84;66.17;100237.09;4933049;28;96657;-75
2021/09/15 05:27:50;;;;;;;29.50;23.35;;;;;;;17.20;64.91;100254.31;4933449;28;96975;-75
2021/09/15 05:30:16;;;;;;;23.90;21.08;;;;;;;17.37;64.86;100258.56;4933091;28;101434;-75
2021/09/15 05:32:49;;;;;;;27.25;22.65;;;;;;;17.10;65.42;100261.13;4932313;28;101526;-76
2021/09/15 05:35:15;;;;;;;26.20;23.38;;;;;;;17.33;65.23;100263.19;4917316;28;96604;-74
2021/09/15 05:37:43;;;;;;;29.00;24.60;;;;;;;17.31;65.01;100262.47;4933475;28;96961;-73
2021/09/15 05:40:09;;;;;;;29.23;24.02;;;;;;;17.41;64.42;100250.31;4932873;28;101525;-75
2021/09/15 05:42:36;;;;;;;25.73;22.90;;;;;;;17.57;64.33;100254.63;4933233;28;101591;-75
2021/09/15 05:45:03;;;;;;;30.88;23.60;;;;;;;17.53;64.76;100250.47;4901268;28;96609;-75
2021/09/15 05:47:30;;;;;;;25.45;22.40;;;;;;;17.64;64.42;100259.44;4917201;28;96568;-75
2021/09/15 05:49:57;;;;;;;39.30;23.65;;;;;;;17.68;64.60;100252.13;4916123;28;101742;-75
2021/09/15 05:52:23;;;;;;;28.35;23.35;;;;;;;17.60;64.29;100254.47;4932509;28;100835;-75
2021/09/15 05:54:49;;;;;;;30.20;23.42;;;;;;;17.73;64.35;100244.72;4916202;28;96618;-76
2021/09/15 05:57:15;;;;;;;25.52;22.80;;;;;;;17.76;64.51;100241.03;4916865;28;96871;-75
2021/09/15 05:59:40;;;;;;;32.55;23.50;;;;;;;18.04;63.77;100237.47;4900117;28;97950;-75
2021/09/15 06:02:08;;;;;;;29.30;23.10;;;;;;;18.28;63.27;100224.31;4932340;28;99327;-75
2021/09/15 06:04:34;;;;;;;25.77;22.35;;;;;;;18.56;62.81;100233.94;4933252;28;96515;-75
2021/09/15 06:07:13;;;;;;;32.03;23.38;;;;;;;18.90;61.89;100218.31;4902957;28;96799;-75
2021/09/15 06:09:39;;;;;;;24.98;22.25;;;;;;;19.37;60.70;100224.72;4916347;28;101365;-75
2021/09/15 06:12:06;;;;;;;23.15;19.85;;;;;;;19.61;60.21;100222.94;4916323;28;101888;-75
2021/09/15 06:14:35;;;;;;;24.27;21.83;;;;;;;19.94;59.13;100221.44;4916175;28;96618;-75
2021/09/15 06:17:01;;;;;;;26.85;20.48;;;;;;;20.07;58.77;100211.56;4916795;28;96785;-75
2021/09/15 06:19:26;;;;;;;25.25;19.85;;;;;;;20.56;57.49;100210.50;4916172;28;101664;-75
2021/09/15 06:22:08;;;;;;;22.67;20.35;;;;;;;20.93;56.96;100212.13;4918533;28;101388;-75
2021/09/15 06:24:54;;;;;;;22.80;19.92;;;;;;;21.38;55.75;100212.97;4919012;28;96908;-75
2021/09/15 06:27:24;;;;;;;21.75;18.10;;;;;;;22.02;54.28;100216.66;4916671;28;96834;-75
2021/09/15 06:29:50;;;;;;;23.48;18.67;;;;;;;22.67;52.37;100218.25;4900306;28;98140;-75
2021/09/15 06:32:19;;;;;;;22.67;18.70;;;;;;;23.11;51.30;100216.25;4900376;28;101240;-75
2021/09/15 06:34:45;;;;;;;21.73;17.77;;;;;;;24.04;49.82;100215.03;4932960;28;96567;-75
2021/09/15 06:37:13;;;;;;;24.77;18.50;;;;;;;24.91;48.12;100213.19;4932730;28;96858;-75
2021/09/15 06:39:39;;;;;;;31.23;17.70;;;;;;;25.79;45.84;100210.88;4931576;28;101759;-75
2021/09/15 06:42:05;;;;;;;20.90;17.95;;;;;;;26.95;44.00;100222.41;4915654;28;101274;-75
2021/09/15 06:44:30;;;;;;;22.80;16.38;;;;;;;28.27;40.56;100198.31;4932574;28;96727;-75
2021/09/15 06:46:56;;;;;;;18.73;16.92;;;;;;;28.92;38.83;100208.19;4915945;28;96969;-75
2021/09/15 06:49:21;;;;;;;23.38;16.23;;;;;;;29.59;38.15;100196.94;4916055;28;98704;-75
2021/09/15 06:51:47;;;;;;;19.45;16.40;;;;;;;29.90;37.32;100193.34;4916016;28;97491;-75
2021/09/15 06:54:13;;;;;;;17.67;16.08;;;;;;;30.97;35.94;100191.34;4916279;28;96574;-79
2021/09/15 06:56:38;;;;;;;16.13;14.63;;;;;;;30.59;36.12;100193.28;4917998;28;96778;-76
2021/09/15 06:59:04;;;;;;;18.80;14.82;;;;;;;30.94;35.63;100189.00;4916881;28;98182;-76
2021/09/15 07:01:29;;;;;;;15.77;14.27;;;;;;;31.70;34.63;100197.66;4932667;28;97300;-76
2021/09/15 07:03:55;;;;;;;15.63;13.68;;;;;;;32.13;33.93;100200.38;4899485;28;96647;-76
2021/09/15 07:06:20;;;;;;;14.93;13.57;;;;;;;32.29;33.76;100195.72;4899754;28;96851;-77
2021/09/15 07:08:46;;;;;;;15.10;13.48;;;;;;;32.52;33.62;100200.94;4917041;28;98136;-76
2021/09/15 07:11:11;;;;;;;16.90;14.07;;;;;;;33.27;32.68;100186.50;4915576;28;100887;-76
2021/09/15 07:13:37;;;;;;;16.50;14.05;;;;;;;33.59;31.56;100186.84;4915945;28;96619;-76
2021/09/15 07:16:03;;;;;;;13.55;12.27;;;;;;;34.50;30.96;100186.28;4917290;28;96896;-77
2021/09/15 07:18:28;;;;;;;14.55;13.10;;;;;;;34.68;31.00;100180.22;4917084;28;97532;-77
2021/09/15 07:20:54;;;;;;;14.18;12.75;;;;;;;35.27;30.06;100186.53;4915729;28;100796;-77
2021/09/15 07:23:20;;;;;;;15.95;13.43;;;;;;;35.82;29.81;100186.88;4932181;28;96650;-78
2021/09/15 07:25:45;;;;;;;13.50;12.18;;;;;;;36.67;28.36;100187.22;4932127;28;97113;-77
2021/09/15 07:28:11;;;;;;;13.85;12.43;;;;;;;36.74;28.62;100180.84;4915043;28;98049;-77
2021/09/15 07:30:36;;;;;;;19.88;13.07;;;;;;;36.71;28.34;100190.31;4915596;28;98587;-77
2021/09/15 07:33:02;;;;;;;14.48;12.60;;;;;;;37.03;28.16;100182.00;4915553;28;96710;-77
2021/09/15 07:35:28;;;;;;;14.80;13.02;;;;;;;37.66;27.42;100187.06;4916281;28;96912;-77
2021/09/15 07:37:53;;;;;;;13.48;12.13;;;;;;;38.18;26.65;100186.50;4914796;28;97506;-77
2021/09/15 07:40:19;;;;;;;12.40;11.30;;;;;;;38.57;26.13;100192.34;4931086;28;97765;-78
2021/09/15 07:42:45;;;;;;;13.13;11.93;;;;;;;38.39;26.49;100196.84;4899238;28;96679;-78
2021/09/15 07:45:14;;;;;;;13.63;11.30;;;;;;;39.07;25.67;100189.06;4900027;28;96896;-78
2021/09/15 07:47:41;;;;;;;14.32;12.48;;;;;;;38.81;25.60;100195.91;4930738;28;97696;-78
2021/09/15 07:50:08;;;;;;;11.73;10.73;;;;;;;39.15;26.14;100197.75;4930901;28;101106;-78
2021/09/15 07:52:33;;;;;;;12.18;10.63;;;;;;;38.44;25.86;100202.50;4916068;28;96529;-78
2021/09/15 07:54:59;;;;;;;13.32;10.80;;;;;;;37.75;27.14;100199.34;4931289;28;96783;-78
2021/09/15 07:57:24;;;;;;;12.02;10.73;;;;;;;38.11;26.34;100200.31;4916647;28;97566;-78
2021/09/15 07:59:50;;;;;;;12.00;10.88;;;;;;;37.62;26.72;100198.72;4914505;28;97443;-77
2021/09/15 08:02:16;;;;;;;11.75;10.77;;;;;;;38.03;26.84;100200.66;4931451;28;96514;-76
2021/09/15 08:04:41;;;;;;;11.95;10.60;;;;;;;38.93;26.03;100202.25;4915269;28;96908;-77
2021/09/15 08:07:07;;;;;;;11.45;9.80;;;;;;;38.15;26.75;100193.28;4914999;28;97651;-76
2021/09/15 08:09:32;;;;;;;10.65;9.60;;;;;;;37.75;27.06;100204.00;4899005;28;101417;-76
2021/09/15 08:11:58;;;;;;;10.73;9.60;;;;;;;38.36;26.79;100204.72;4915104;28;96582;-76
2021/09/15 08:14:26;;;;;;;12.23;10.40;;;;;;;39.22;24.87;100205.84;4916819;28;96810;-76
2021/09/15 08:16:51;;;;;;;11.02;10.00;;;;;;;38.18;26.65;100198.28;4914617;28;97988;-76
2021/09/15 08:19:17;;;;;;;12.77;10.15;;;;;;;37.26;27.57;100198.53;4914744;28;97958;-76
2021/09/15 08:21:42;;;;;;;10.35;9.45;;;;;;;37.50;27.29;100194.06;4931068;28;96878;-76
2021/09/15 08:24:08;;;;;;;10.65;9.85;;;;;;;37.81;26.80;100192.09;4899090;28;98350;-76
2021/09/15 08:26:33;;;;;;;10.88;9.75;;;;;;;37.34;27.54;100186.44;4914797;28;97605;-76
2021/09/15 08:28:59;;;;;;;11.00;9.98;;;;;;;38.04;26.85;100196.81;4915548;28;97967;-76
2021/09/15 08:31:24;;;;;;;9.88;8.82;;;;;;;38.31;26.47;100188.16;4916171;28;96707;-76
2021/09/15 08:33:50;;;;;;;10.55;9.55;;;;;;;38.27;26.36;100188.63;4898956;28;96891;-76
2021/09/15 08:36:16;;;;;;;12.98;9.80;;;;;;;37.38;27.82;100190.38;4915855;28;98104;-76
2021/09/15 08:38:41;;;;;;;9.85;9.07;;;;;;;37.33;27.44;100182.03;4915642;28;97852;-76
2021/09/15 08:41:07;;;;;;;11.13;10.07;;;;;;;36.04;29.10;100187.34;4914392;28;96789;-76
2021/09/15 08:43:37;;;;;;;11.27;10.23;;;;;;;36.19;29.24;100185.16;4914200;28;96965;-78
2021/09/15 08:46:05;;;;;;;10.27;9.32;;;;;;;36.36;29.13;100195.47;4930031;28;98061;-76
2021/09/15 08:48:35;;;;;;;10.65;9.75;;;;;;;37.27;28.45;100183.81;4914338;28;97853;-76
2021/09/15 08:51:01;;;;;;;10.15;9.15;;;;;;;38.01;27.25;100173.47;4930201;28;96614;-76
2021/09/15 08:53:27;;;;;;;11.27;9.85;;;;;;;37.98;27.23;100173.13;4930915;28;96975;-76
2021/09/15 08:55:53;;;;;;;9.68;8.68;;;;;;;38.59;26.66;100171.84;4898062;28;101756;-76
2021/09/15 08:58:19;;;;;;;9.77;8.50;;;;;;;38.77;26.01;100170.84;4914102;28;97213;-76
2021/09/15 09:00:46;;;;;;;11.40;10.23;;;;;;;38.11;26.65;100161.09;4916017;28;96711;-76
2021/09/15 09:03:12;;;;;;;13.30;9.32;;;;;;;37.85;27.54;100163.19;4915655;28;96917;-77
2021/09/15 09:05:38;;;;;;;11.05;9.95;;;;;;;36.77;28.44;100164.84;4897863;28;101867;-77
2021/09/15 09:08:18;;;;;;;9.90;9.00;;;;;;;37.25;28.20;100168.69;4914063;28;98174;-76
2021/09/15 09:10:50;;;;;;;11.40;10.32;;;;;;;36.52;28.76;100164.03;4930399;28;96641;-76
2021/09/15 09:13:19;;;;;;;11.30;9.85;;;;;;;36.34;29.08;100162.09;4930251;28;96593;-77
2021/09/15 09:15:45;;;;;;;10.32;9.43;;;;;;;36.06;29.35;100163.41;4914183;28;98270;-77
2021/09/15 09:18:17;;;;;;;12.10;9.23;;;;;;;36.59;29.21;100168.38;4898530;28;101064;-76
2021/09/15 09:20:42;;;;;;;12.27;9.60;;;;;;;35.11;30.10;100166.03;4915419;28;96546;-76
2021/09/15 09:23:14;;;;;;;10.25;9.32;;;;;;;35.00;30.56;100163.97;4930320;28;97043;-76
2021/09/15 09:25:58;;;;;;;13.10;9.00;;;;;;;35.25;30.51;100162.19;4915134;28;97750;-76
2021/09/15 09:28:29;;;;;;;9.60;8.57;;;;;;;34.56;30.98;100155.50;4899455;28;101028;-76
2021/09/15 09:30:59;;;;;;;10.10;8.93;;;;;;;34.80;30.95;100145.78;4933064;28;96593;-76
2021/09/15 09:33:31;;;;;;;10.50;9.68;;;;;;;34.92;30.60;100141.34;4933599;28;96699;-76
2021/09/15 09:36:08;;;;;;;9.25;8.48;;;;;;;35.01;30.70;100132.91;4916818;28;101231;-78
2021/09/15 09:38:35;;;;;;;11.20;8.77;;;;;;;35.39;30.64;100141.13;4932937;28;101081;-76
2021/09/15 09:41:06;;;;;;;9.25;8.65;;;;;;;35.29;30.19;100138.91;4901215;28;96614;-76
2021/09/15 09:43:35;;;;;;;9.77;8.73;;;;;;;35.27;30.76;100143.72;4933187;28;96935;-76
2021/09/15 09:46:02;;;;;;;11.43;8.88;;;;;;;34.65;31.14;100132.44;4916691;28;97629;-76
2021/09/15 09:48:33;;;;;;;9.90;8.98;;;;;;;34.42;31.32;100123.88;4917269;28;98322;-76
2021/09/15 09:51:00;;;;;;;9.32;8.35;;;;;;;34.66;31.67;100136.00;4916829;28;96701;-75
2021/09/15 09:53:27;;;;;;;9.43;8.60;;;;;;;34.97;30.77;100134.38;4933094;28;96963;-76
2021/09/15 09:55:57;;;;;;;10.23;8.35;;;;;;;34.52;31.92;100123.41;4900556;28;98568;-76
2021/09/15 09:58:23;;;;;;;11.75;7.63;;;;;;;34.70;30.88;100132.63;4932279;28;102141;-77
2021/09/15 10:00:54;;;;;;;17.23;8.73;;;;;;;34.36;31.35;100122.81;4901244;28;96638;-73
2021/09/15 10:03:19;;;;;;;8.38;7.68;;;;;;;34.32;31.21;100113.38;4933174;28;96565;-76
2021/09/15 10:05:45;;;;;;;9.48;8.57;;;;;;;33.88;31.99;100123.03;4900501;28;100931;-75
2021/09/15 10:08:11;;;;;;;11.20;8.25;;;;;;;33.01;33.14;100123.88;4916768;28;97398;-75
2021/09/15 10:10:39;;;;;;;8.95;8.30;;;;;;;32.40;34.38;100127.28;4933205;28;96491;-75
2021/09/15 10:13:08;;;;;;;8.98;7.93;;;;;;;32.76;34.29;100129.81;4916905;28;96940;-75
2021/09/15 10:15:43;;;;;;;9.43;8.43;;;;;;;33.07;33.35;100125.78;4932687;28;101215;-76
2021/09/15 10:18:11;;;;;;;11.50;8.07;;;;;;;32.04;34.81;100114.72;4932990;28;97511;-75
2021/09/15 10:20:37;;;;;;;8.38;7.60;;;;;;;32.02;35.70;100120.31;4900065;28;96585;-75
2021/09/15 10:23:39;;;;;;;8.07;7.47;;;;;;;31.76;35.58;100115.47;4932304;28;96960;-75
2021/09/15 10:26:23;;;;;;;8.48;7.68;;;;;;;31.63;36.42;100117.25;4884366;28;101514;-75
2021/09/15 10:29:28;;;;;;;9.00;8.20;;;;;;;31.15;37.28;100109.63;4916612;28;97757;-75
2021/09/15 10:32:10;;;;;;;8.23;7.47;;;;;;;30.78;37.17;100103.31;4932382;28;96554;-75
2021/09/15 10:34:36;;;;;;;9.68;7.05;;;;;;;30.80;37.77;100106.69;4932746;28;96579;-75
2021/09/15 10:37:03;;;;;;;9.05;7.18;;;;;;;30.80;37.54;100103.16;4899998;28;101123;-75
2021/09/15 10:39:28;;;;;;;10.57;7.65;;;;;;;30.87;37.30;100107.63;4916756;28;98098;-75
2021/09/15 10:41:55;;;;;;;7.40;6.68;;;;;;;30.55;37.24;100106.16;4916813;28;96570;-74
2021/09/15 10:44:21;;;;;;;7.15;6.50;;;;;;;30.25;37.88;100093.63;4932491;28;96776;-77
2021/09/15 10:46:47;;;;;;;7.63;6.88;;;;;;;30.11;38.31;100100.69;4915655;28;97720;-77
2021/09/15 10:49:39;;;;;;;8.65;7.15;;;;;;;29.42;39.77;100098.03;4915432;28;101140;-77
2021/09/15 10:52:07;;;;;;;7.85;7.18;;;;;;;29.31;39.82;100094.69;4916531;28;96703;-76
2021/09/15 10:54:42;;;;;;;7.78;7.18;;;;;;;29.44;40.35;100102.22;4917716;28;96834;-76
2021/09/15 10:57:30;;;;;;;10.93;8.00;;;;;;;29.50;39.69;100100.66;4915708;28;101187;-75
2021/09/15 11:00:06;;;;;;;8.15;7.05;;;;;;;29.97;39.09;100081.53;4899105;28;101247;-76
2021/09/15 11:02:37;;;;;;;8.90;7.13;;;;;;;29.88;38.91;100076.38;4916375;28;96616;-75
2021/09/15 11:05:25;;;;;;;7.90;7.07;;;;;;;29.86;38.83;100071.13;4916467;28;96591;-76
2021/09/15 11:07:50;;;;;;;10.25;7.00;;;;;;;29.56;38.67;100075.59;4915668;28;98486;-76
2021/09/15 11:10:34;;;;;;;8.15;7.38;;;;;;;29.16;39.63;100074.03;4931339;28;101294;-75
2021/09/15 11:13:12;;;;;;;8.68;6.97;;;;;;;29.01;39.25;100063.97;4931068;28;96726;-76
2021/09/15 11:15:46;;;;;;;8.15;7.40;;;;;;;28.89;40.30;100062.69;4931589;28;96749;-76
2021/09/15 11:18:29;;;;;;;11.50;7.15;;;;;;;28.62;40.30;100063.97;4931418;28;98708;-76
2021/09/15 11:21:10;;;;;;;7.45;6.65;;;;;;;28.87;40.19;100073.66;4931866;28;97591;-75
2021/09/15 11:23:36;;;;;;;7.22;6.47;;;;;;;28.66;40.63;100058.06;4901087;28;96673;-76
2021/09/15 11:26:03;;;;;;;7.97;7.28;;;;;;;28.84;40.65;100065.06;4915802;28;96855;-76
2021/09/15 11:28:28;;;;;;;7.00;6.30;;;;;;;28.70;40.67;100071.22;4899147;28;100873;-76